sensor_id;sensor_type;location;lat;lon;timestamp;P1;durP1;ratioP1;P2;durP2;ratioP2
16994;SDS011;8614;48.522;9.206;2022-11-20T03:00:31;12.77;;;11.97;;
16994;SDS011;8614;48.522;9.206;2022-11-20T03:02:58;13.40;;;12.50;;
16994;SDS011;8614;48.522;9.206;2022-11-20T03:05:25;13.30;;;12.40;;
16994;SDS011;8614;48.522;9.206;2022-11-20T03:07:52;13.10;;;12.30;;
16994;SDS011;8614;48.522;9.206;2022-11-20T03:10:19;12.83;;;12.03;;
16994;SDS011;8614;48.522;9.206;2022-11-20T03:12:46;13.07;;;12.10;;
16994;SDS011;8614;48.522;9.206;2022-11-20T03:15:12;12.73;;;11.93;;
16994;SDS011;8614;48.522;9.206;2022-11-20T03:17:41;12.30;;;11.60;;
16994;SDS011;8614;48.522;9.206;2022-11-20T03:20:08;12.17;;;11.43;;
16994;SDS011;8614;48.522;9.206;2022-11-20T03:22:36;12.07;;;11.37;;
16994;SDS011;8614;48.522;9.206;2022-11-20T03:25:03;12.70;;;11.90;;
16994;SDS011;8614;48.522;9.206;2022-11-20T03:27:31;12.20;;;11.50;;
16994;SDS011;8614;48.522;9.206;2022-11-20T03:29:59;12.23;;;11.43;;
16994;SDS011;8614;48.522;9.206;2022-11-20T03:32:26;12.57;;;11.77;;
16994;SDS011;8614;48.522;9.206;2022-11-20T03:34:54;12.03;;;11.23;;
16994;SDS011;8614;48.522;9.206;2022-11-20T03:37:21;12.00;;;11.20;;
16994;SDS011;8614;48.522;9.206;2022-11-20T03:39:48;12.10;;;11.40;;
16994;SDS011;8614;48.522;9.206;2022-11-20T03:42:15;11.83;;;11.03;;
16994;SDS011;8614;48.522;9.206;2022-11-20T03:44:56;11.50;;;10.80;;
16994;SDS011;8614;48.522;9.206;2022-11-20T03:47:23;12.43;;;11.67;;
16994;SDS011;8614;48.522;9.206;2022-11-20T03:49:49;12.20;;;11.50;;
16994;SDS011;8614;48.522;9.206;2022-11-20T03:52:18;11.97;;;11.27;;
16994;SDS011;8614;48.522;9.206;2022-11-20T03:54:45;11.83;;;11.13;;
16994;SDS011;8614;48.522;9.206;2022-11-20T03:57:11;11.90;;;11.03;;
16994;SDS011;8614;48.522;9.206;2022-11-20T03:59:38;12.03;;;11.33;;
16994;SDS011;8614;48.522;9.206;2022-11-20T04:02:05;11.83;;;11.13;;
16994;SDS011;8614;48.522;9.206;2022-11-20T04:04:32;12.00;;;11.30;;
16994;SDS011;8614;48.522;9.206;2022-11-20T04:06:59;11.80;;;11.10;;
16994;SDS011;8614;48.522;9.206;2022-11-20T04:09:27;11.97;;;11.27;;
16994;SDS011;8614;48.522;9.206;2022-11-20T04:11:54;11.90;;;11.20;;
16994;SDS011;8614;48.522;9.206;2022-11-20T04:14:21;11.40;;;10.73;;
16994;SDS011;8614;48.522;9.206;2022-11-20T04:16:48;11.57;;;10.97;;
16994;SDS011;8614;48.522;9.206;2022-11-20T04:19:15;11.70;;;11.00;;
16994;SDS011;8614;48.522;9.206;2022-11-20T04:21:43;11.47;;;10.87;;
16994;SDS011;8614;48.522;9.206;2022-11-20T04:24:10;11.70;;;10.90;;
16994;SDS011;8614;48.522;9.206;2022-11-20T04:26:39;11.50;;;10.80;;
16994;SDS011;8614;48.522;9.206;2022-11-20T04:29:06;11.33;;;10.63;;
16994;SDS011;8614;48.522;9.206;2022-11-20T04:31:36;11.53;;;10.87;;
16994;SDS011;8614;48.522;9.206;2022-11-20T04:34:03;11.53;;;10.83;;
16994;SDS011;8614;48.522;9.206;2022-11-20T04:36:31;11.37;;;10.67;;
16994;SDS011;8614;48.522;9.206;2022-11-20T04:39:00;11.70;;;11.00;;
16994;SDS011;8614;48.522;9.206;2022-11-20T04:41:28;11.37;;;10.67;;
16994;SDS011;8614;48.522;9.206;2022-11-20T04:43:58;11.40;;;10.73;;
16994;SDS011;8614;48.522;9.206;2022-11-20T04:46:28;11.03;;;10.30;;
16994;SDS011;8614;48.522;9.206;2022-11-20T04:48:56;11.27;;;10.67;;
16994;SDS011;8614;48.522;9.206;2022-11-20T04:51:22;11.47;;;10.83;;
16994;SDS011;8614;48.522;9.206;2022-11-20T04:53:50;11.50;;;10.80;;
16994;SDS011;8614;48.522;9.206;2022-11-20T04:56:17;11.60;;;10.90;;
16994;SDS011;8614;48.522;9.206;2022-11-20T04:58:44;11.50;;;10.80;;
16994;SDS011;8614;48.522;9.206;2022-11-20T05:01:13;12.57;;;11.70;;
16994;SDS011;8614;48.522;9.206;2022-11-20T05:03:42;11.30;;;10.70;;
16994;SDS011;8614;48.522;9.206;2022-11-20T05:06:10;11.27;;;10.67;;
16994;SDS011;8614;48.522;9.206;2022-11-20T05:08:38;11.60;;;10.80;;
16994;SDS011;8614;48.522;9.206;2022-11-20T05:11:06;11.10;;;10.50;;
16994;SDS011;8614;48.522;9.206;2022-11-20T05:13:34;10.90;;;10.30;;
16994;SDS011;8614;48.522;9.206;2022-11-20T05:16:02;11.30;;;10.40;;
16994;SDS011;8614;48.522;9.206;2022-11-20T05:18:31;10.90;;;10.20;;
16994;SDS011;8614;48.522;9.206;2022-11-20T05:20:58;11.33;;;10.63;;
16994;SDS011;8614;48.522;9.206;2022-11-20T05:23:26;11.30;;;10.60;;
16994;SDS011;8614;48.522;9.206;2022-11-20T05:25:54;11.00;;;10.33;;
16994;SDS011;8614;48.522;9.206;2022-11-20T05:28:21;11.60;;;10.90;;
16994;SDS011;8614;48.522;9.206;2022-11-20T05:30:49;11.50;;;10.70;;
16994;SDS011;8614;48.522;9.206;2022-11-20T05:33:16;11.10;;;10.40;;
16994;SDS011;8614;48.522;9.206;2022-11-20T05:35:45;11.10;;;10.50;;
16994;SDS011;8614;48.522;9.206;2022-11-20T05:38:13;11.40;;;10.70;;
16994;SDS011;8614;48.522;9.206;2022-11-20T05:40:40;11.53;;;10.73;;
16994;SDS011;8614;48.522;9.206;2022-11-20T05:43:06;11.20;;;10.60;;
16994;SDS011;8614;48.522;9.206;2022-11-20T05:45:33;11.67;;;10.90;;
16994;SDS011;8614;48.522;9.206;2022-11-20T05:48:00;11.83;;;11.00;;
16994;SDS011;8614;48.522;9.206;2022-11-20T05:50:27;11.23;;;10.63;;
16994;SDS011;8614;48.522;9.206;2022-11-20T05:52:57;11.53;;;10.83;;
16994;SDS011;8614;48.522;9.206;2022-11-20T05:55:24;11.27;;;10.60;;
16994;SDS011;8614;48.522;9.206;2022-11-20T05:57:51;11.80;;;11.10;;
16994;SDS011;8614;48.522;9.206;2022-11-20T06:00:19;11.90;;;11.20;;
16994;SDS011;8614;48.522;9.206;2022-11-20T06:02:46;11.57;;;10.87;;
16994;SDS011;8614;48.522;9.206;2022-11-20T06:05:12;11.87;;;11.17;;
16994;SDS011;8614;48.522;9.206;2022-11-20T06:07:39;11.57;;;10.87;;
16994;SDS011;8614;48.522;9.206;2022-11-20T06:10:08;11.83;;;11.17;;
16994;SDS011;8614;48.522;9.206;2022-11-20T06:12:35;12.17;;;11.37;;
16994;SDS011;8614;48.522;9.206;2022-11-20T06:15:03;11.50;;;10.80;;
16994;SDS011;8614;48.522;9.206;2022-11-20T06:17:30;12.17;;;11.20;;
16994;SDS011;8614;48.522;9.206;2022-11-20T06:19:57;11.67;;;11.00;;
16994;SDS011;8614;48.522;9.206;2022-11-20T06:22:24;11.67;;;10.83;;
16994;SDS011;8614;48.522;9.206;2022-11-20T06:24:50;11.83;;;11.13;;
16994;SDS011;8614;48.522;9.206;2022-11-20T06:27:19;12.00;;;11.30;;
16994;SDS011;8614;48.522;9.206;2022-11-20T06:29:46;11.90;;;11.30;;
16994;SDS011;8614;48.522;9.206;2022-11-20T06:32:12;11.80;;;11.10;;
16994;SDS011;8614;48.522;9.206;2022-11-20T06:34:39;12.07;;;11.37;;
16994;SDS011;8614;48.522;9.206;2022-11-20T06:37:06;12.10;;;11.30;;
16994;SDS011;8614;48.522;9.206;2022-11-20T06:39:33;12.03;;;11.33;;
16994;SDS011;8614;48.522;9.206;2022-11-20T06:42:00;12.50;;;11.73;;
16994;SDS011;8614;48.522;9.206;2022-11-20T06:44:28;12.70;;;11.70;;
16994;SDS011;8614;48.522;9.206;2022-11-20T06:46:55;12.10;;;11.40;;
16994;SDS011;8614;48.522;9.206;2022-11-20T06:49:22;12.10;;;11.40;;
16994;SDS011;8614;48.522;9.206;2022-11-20T06:51:50;11.40;;;10.80;;
16994;SDS011;8614;48.522;9.206;2022-11-20T06:54:17;11.57;;;10.87;;
16994;SDS011;8614;48.522;9.206;2022-11-20T06:56:45;12.00;;;11.30;;
16994;SDS011;8614;48.522;9.206;2022-11-20T06:59:12;12.13;;;11.37;;
16994;SDS011;8614;48.522;9.206;2022-11-20T07:01:41;11.40;;;10.77;;
16994;SDS011;8614;48.522;9.206;2022-11-20T07:04:08;11.60;;;10.90;;
16994;SDS011;8614;48.522;9.206;2022-11-20T07:06:34;11.17;;;10.57;;
16994;SDS011;8614;48.522;9.206;2022-11-20T07:09:01;11.87;;;11.17;;
16994;SDS011;8614;48.522;9.206;2022-11-20T07:11:28;11.83;;;11.13;;
16994;SDS011;8614;48.522;9.206;2022-11-20T07:13:56;11.47;;;10.77;;
16994;SDS011;8614;48.522;9.206;2022-11-20T07:16:23;11.10;;;10.43;;
16994;SDS011;8614;48.522;9.206;2022-11-20T07:18:51;11.53;;;10.83;;
16994;SDS011;8614;48.522;9.206;2022-11-20T07:21:18;11.30;;;10.60;;
16994;SDS011;8614;48.522;9.206;2022-11-20T07:23:45;11.60;;;10.87;;
16994;SDS011;8614;48.522;9.206;2022-11-20T07:26:12;11.43;;;10.80;;
16994;SDS011;8614;48.522;9.206;2022-11-20T07:28:39;11.40;;;10.63;;
16994;SDS011;8614;48.522;9.206;2022-11-20T07:31:06;11.83;;;11.03;;
16994;SDS011;8614;48.522;9.206;2022-11-20T07:33:33;11.73;;;11.07;;
16994;SDS011;8614;48.522;9.206;2022-11-20T07:36:01;12.50;;;11.67;;
16994;SDS011;8614;48.522;9.206;2022-11-20T07:38:29;11.70;;;11.00;;
16994;SDS011;8614;48.522;9.206;2022-11-20T07:40:56;11.77;;;11.07;;
16994;SDS011;8614;48.522;9.206;2022-11-20T07:43:23;12.10;;;11.40;;
16994;SDS011;8614;48.522;9.206;2022-11-20T07:45:51;11.77;;;11.17;;
16994;SDS011;8614;48.522;9.206;2022-11-20T07:48:17;12.07;;;11.27;;
16994;SDS011;8614;48.522;9.206;2022-11-20T07:50:44;11.63;;;10.93;;
16994;SDS011;8614;48.522;9.206;2022-11-20T07:53:12;11.83;;;11.13;;
16994;SDS011;8614;48.522;9.206;2022-11-20T07:55:45;12.00;;;11.30;;
16994;SDS011;8614;48.522;9.206;2022-11-20T07:58:12;10.70;;;10.07;;
16994;SDS011;8614;48.522;9.206;2022-11-20T08:00:40;10.97;;;10.37;;
16994;SDS011;8614;48.522;9.206;2022-11-20T08:03:07;10.43;;;9.83;;
16994;SDS011;8614;48.522;9.206;2022-11-20T08:05:34;10.50;;;9.80;;
16994;SDS011;8614;48.522;9.206;2022-11-20T08:08:01;10.50;;;9.90;;
16994;SDS011;8614;48.522;9.206;2022-11-20T08:10:29;10.50;;;9.90;;
16994;SDS011;8614;48.522;9.206;2022-11-20T08:12:56;10.57;;;9.77;;
16994;SDS011;8614;48.522;9.206;2022-11-20T08:15:40;10.30;;;9.70;;
16994;SDS011;8614;48.522;9.206;2022-11-20T08:18:08;10.30;;;9.70;;
16994;SDS011;8614;48.522;9.206;2022-11-20T08:20:36;10.90;;;10.20;;
16994;SDS011;8614;48.522;9.206;2022-11-20T08:23:04;10.90;;;10.30;;
16994;SDS011;8614;48.522;9.206;2022-11-20T08:25:34;10.77;;;10.17;;
16994;SDS011;8614;48.522;9.206;2022-11-20T08:28:03;11.63;;;10.83;;
16994;SDS011;8614;48.522;9.206;2022-11-20T08:30:32;11.57;;;10.87;;
16994;SDS011;8614;48.522;9.206;2022-11-20T08:33:00;11.37;;;10.67;;
16994;SDS011;8614;48.522;9.206;2022-11-20T08:35:28;11.63;;;10.87;;
16994;SDS011;8614;48.522;9.206;2022-11-20T08:37:58;11.27;;;10.67;;
16994;SDS011;8614;48.522;9.206;2022-11-20T08:40:25;12.20;;;11.40;;
16994;SDS011;8614;48.522;9.206;2022-11-20T08:42:53;12.10;;;11.40;;
16994;SDS011;8614;48.522;9.206;2022-11-20T08:45:20;12.30;;;11.60;;
16994;SDS011;8614;48.522;9.206;2022-11-20T08:47:47;11.77;;;11.07;;
16994;SDS011;8614;48.522;9.206;2022-11-20T08:50:14;12.03;;;11.27;;
16994;SDS011;8614;48.522;9.206;2022-11-20T08:52:42;12.07;;;11.37;;
16994;SDS011;8614;48.522;9.206;2022-11-20T08:55:10;11.80;;;10.93;;
16994;SDS011;8614;48.522;9.206;2022-11-20T08:57:37;11.90;;;11.20;;
16994;SDS011;8614;48.522;9.206;2022-11-20T09:00:06;11.53;;;10.90;;
16994;SDS011;8614;48.522;9.206;2022-11-20T09:02:34;11.67;;;10.97;;
16994;SDS011;8614;48.522;9.206;2022-11-20T09:05:01;11.67;;;10.97;;
16994;SDS011;8614;48.522;9.206;2022-11-20T09:07:28;11.60;;;10.90;;
16994;SDS011;8614;48.522;9.206;2022-11-20T09:09:56;12.00;;;11.30;;
16994;SDS011;8614;48.522;9.206;2022-11-20T09:12:23;11.33;;;10.67;;
16994;SDS011;8614;48.522;9.206;2022-11-20T09:14:50;11.10;;;10.50;;
16994;SDS011;8614;48.522;9.206;2022-11-20T09:17:18;12.00;;;11.20;;
16994;SDS011;8614;48.522;9.206;2022-11-20T09:19:45;11.30;;;10.70;;
16994;SDS011;8614;48.522;9.206;2022-11-20T09:22:13;11.40;;;10.63;;
16994;SDS011;8614;48.522;9.206;2022-11-20T09:24:40;11.20;;;10.60;;
16994;SDS011;8614;48.522;9.206;2022-11-20T09:27:07;11.57;;;10.97;;
16994;SDS011;8614;48.522;9.206;2022-11-20T09:29:34;11.17;;;10.57;;
16994;SDS011;8614;48.522;9.206;2022-11-20T09:32:01;11.40;;;10.80;;
16994;SDS011;8614;48.522;9.206;2022-11-20T09:34:30;11.53;;;10.90;;
16994;SDS011;8614;48.522;9.206;2022-11-20T09:36:56;11.50;;;10.80;;
16994;SDS011;8614;48.522;9.206;2022-11-20T09:39:23;11.40;;;10.70;;
16994;SDS011;8614;48.522;9.206;2022-11-20T09:42:02;11.43;;;10.73;;
16994;SDS011;8614;48.522;9.206;2022-11-20T09:44:40;11.57;;;10.77;;
16994;SDS011;8614;48.522;9.206;2022-11-20T09:47:20;11.00;;;10.40;;
16994;SDS011;8614;48.522;9.206;2022-11-20T09:50:01;11.40;;;10.80;;
16994;SDS011;8614;48.522;9.206;2022-11-20T09:52:46;11.70;;;11.00;;
16994;SDS011;8614;48.522;9.206;2022-11-20T09:55:21;11.60;;;10.90;;
16994;SDS011;8614;48.522;9.206;2022-11-20T09:57:48;11.70;;;10.90;;
16994;SDS011;8614;48.522;9.206;2022-11-20T10:00:18;12.10;;;11.40;;
16994;SDS011;8614;48.522;9.206;2022-11-20T10:02:47;11.60;;;11.00;;
16994;SDS011;8614;48.522;9.206;2022-11-20T10:05:20;11.83;;;11.13;;
16994;SDS011;8614;48.522;9.206;2022-11-20T10:07:53;11.20;;;10.60;;
16994;SDS011;8614;48.522;9.206;2022-11-20T10:10:35;10.97;;;10.37;;
16994;SDS011;8614;48.522;9.206;2022-11-20T10:13:23;10.70;;;10.10;;
16994;SDS011;8614;48.522;9.206;2022-11-20T10:16:09;11.00;;;10.40;;
16994;SDS011;8614;48.522;9.206;2022-11-20T10:18:49;10.73;;;10.10;;
16994;SDS011;8614;48.522;9.206;2022-11-20T10:21:32;10.97;;;10.27;;
16994;SDS011;8614;48.522;9.206;2022-11-20T10:24:08;11.33;;;10.63;;
16994;SDS011;8614;48.522;9.206;2022-11-20T10:26:53;10.97;;;10.37;;
16994;SDS011;8614;48.522;9.206;2022-11-20T10:29:28;11.00;;;10.30;;
16994;SDS011;8614;48.522;9.206;2022-11-20T10:32:00;10.90;;;10.30;;
16994;SDS011;8614;48.522;9.206;2022-11-20T10:34:31;10.70;;;10.10;;
16994;SDS011;8614;48.522;9.206;2022-11-20T10:37:18;10.73;;;10.13;;
16994;SDS011;8614;48.522;9.206;2022-11-20T10:39:49;10.90;;;10.30;;
16994;SDS011;8614;48.522;9.206;2022-11-20T10:42:22;10.80;;;10.20;;
16994;SDS011;8614;48.522;9.206;2022-11-20T10:44:57;10.97;;;10.37;;
16994;SDS011;8614;48.522;9.206;2022-11-20T10:47:37;10.57;;;9.97;;
16994;SDS011;8614;48.522;9.206;2022-11-20T10:50:08;10.23;;;9.73;;
16994;SDS011;8614;48.522;9.206;2022-11-20T10:52:44;10.27;;;9.77;;
16994;SDS011;8614;48.522;9.206;2022-11-20T10:55:24;10.50;;;9.90;;
16994;SDS011;8614;48.522;9.206;2022-11-20T10:57:59;10.47;;;9.87;;
16994;SDS011;8614;48.522;9.206;2022-11-20T11:00:32;10.30;;;9.70;;
16994;SDS011;8614;48.522;9.206;2022-11-20T11:02:59;11.00;;;10.40;;
16994;SDS011;8614;48.522;9.206;2022-11-20T11:05:33;10.03;;;9.53;;
16994;SDS011;8614;48.522;9.206;2022-11-20T11:08:07;10.47;;;9.87;;
16994;SDS011;8614;48.522;9.206;2022-11-20T11:10:42;10.20;;;9.60;;
16994;SDS011;8614;48.522;9.206;2022-11-20T11:13:22;10.30;;;9.70;;
16994;SDS011;8614;48.522;9.206;2022-11-20T11:15:50;10.60;;;10.00;;
16994;SDS011;8614;48.522;9.206;2022-11-20T11:18:24;9.83;;;9.33;;
16994;SDS011;8614;48.522;9.206;2022-11-20T11:20:53;10.63;;;9.93;;
16994;SDS011;8614;48.522;9.206;2022-11-20T11:23:32;10.33;;;9.73;;
16994;SDS011;8614;48.522;9.206;2022-11-20T11:26:03;10.13;;;9.53;;
16994;SDS011;8614;48.522;9.206;2022-11-20T11:28:31;10.10;;;9.50;;
16994;SDS011;8614;48.522;9.206;2022-11-20T11:30:59;10.20;;;9.70;;
16994;SDS011;8614;48.522;9.206;2022-11-20T11:33:26;10.50;;;9.90;;
16994;SDS011;8614;48.522;9.206;2022-11-20T11:35:54;10.63;;;10.03;;
16994;SDS011;8614;48.522;9.206;2022-11-20T11:38:27;11.07;;;10.37;;
16994;SDS011;8614;48.522;9.206;2022-11-20T11:40:57;10.73;;;10.13;;
16994;SDS011;8614;48.522;9.206;2022-11-20T11:43:24;10.10;;;9.50;;
16994;SDS011;8614;48.522;9.206;2022-11-20T11:46:22;10.80;;;10.10;;
16994;SDS011;8614;48.522;9.206;2022-11-20T11:48:57;10.93;;;10.27;;
16994;SDS011;8614;48.522;9.206;2022-11-20T11:51:26;11.30;;;10.60;;
16994;SDS011;8614;48.522;9.206;2022-11-20T11:53:58;11.17;;;10.57;;
16994;SDS011;8614;48.522;9.206;2022-11-20T11:56:28;11.60;;;10.90;;
16994;SDS011;8614;48.522;9.206;2022-11-20T11:58:57;11.50;;;10.80;;
16994;SDS011;8614;48.522;9.206;2022-11-20T12:01:31;11.17;;;10.47;;
16994;SDS011;8614;48.522;9.206;2022-11-20T12:04:04;10.90;;;10.30;;
16994;SDS011;8614;48.522;9.206;2022-11-20T12:06:39;10.83;;;10.13;;
16994;SDS011;8614;48.522;9.206;2022-11-20T12:09:10;12.40;;;11.23;;
16994;SDS011;8614;48.522;9.206;2022-11-20T12:11:40;11.33;;;10.63;;
16994;SDS011;8614;48.522;9.206;2022-11-20T12:14:14;10.87;;;10.27;;
16994;SDS011;8614;48.522;9.206;2022-11-20T12:16:49;10.83;;;10.23;;
16994;SDS011;8614;48.522;9.206;2022-11-20T12:19:17;10.90;;;10.30;;
16994;SDS011;8614;48.522;9.206;2022-11-20T12:21:51;13.10;;;12.00;;
16994;SDS011;8614;48.522;9.206;2022-11-20T12:24:34;11.57;;;10.77;;
16994;SDS011;8614;48.522;9.206;2022-11-20T12:27:21;11.20;;;10.50;;
16994;SDS011;8614;48.522;9.206;2022-11-20T12:30:01;10.93;;;10.23;;
16994;SDS011;8614;48.522;9.206;2022-11-20T12:32:41;11.10;;;10.40;;
16994;SDS011;8614;48.522;9.206;2022-11-20T12:35:27;10.53;;;9.87;;
16994;SDS011;8614;48.522;9.206;2022-11-20T12:38:11;10.87;;;10.13;;
16994;SDS011;8614;48.522;9.206;2022-11-20T12:40:53;11.70;;;10.80;;
16994;SDS011;8614;48.522;9.206;2022-11-20T12:43:26;10.37;;;9.77;;
16994;SDS011;8614;48.522;9.206;2022-11-20T12:46:18;11.30;;;10.30;;
16994;SDS011;8614;48.522;9.206;2022-11-20T12:48:56;11.10;;;10.03;;
16994;SDS011;8614;48.522;9.206;2022-11-20T12:51:34;11.00;;;10.30;;
16994;SDS011;8614;48.522;9.206;2022-11-20T12:57:27;10.60;;;10.00;;
16994;SDS011;8614;48.522;9.206;2022-11-20T13:00:09;10.30;;;9.80;;
16994;SDS011;8614;48.522;9.206;2022-11-20T13:05:55;10.90;;;10.30;;
16994;SDS011;8614;48.522;9.206;2022-11-20T13:08:27;10.50;;;10.00;;
16994;SDS011;8614;48.522;9.206;2022-11-20T13:10:58;10.50;;;9.90;;
16994;SDS011;8614;48.522;9.206;2022-11-20T13:13:32;10.60;;;10.00;;
16994;SDS011;8614;48.522;9.206;2022-11-20T13:16:12;10.80;;;10.20;;
16994;SDS011;8614;48.522;9.206;2022-11-20T13:18:45;11.10;;;10.40;;
16994;SDS011;8614;48.522;9.206;2022-11-20T13:21:15;10.93;;;10.33;;
16994;SDS011;8614;48.522;9.206;2022-11-20T13:23:44;11.00;;;10.40;;
16994;SDS011;8614;48.522;9.206;2022-11-20T13:26:15;10.27;;;9.70;;
16994;SDS011;8614;48.522;9.206;2022-11-20T13:28:45;10.70;;;10.10;;
16994;SDS011;8614;48.522;9.206;2022-11-20T13:31:25;11.00;;;10.30;;
16994;SDS011;8614;48.522;9.206;2022-11-20T13:33:56;10.67;;;10.00;;
16994;SDS011;8614;48.522;9.206;2022-11-20T13:36:27;10.53;;;9.93;;
16994;SDS011;8614;48.522;9.206;2022-11-20T13:38:55;10.20;;;9.60;;
16994;SDS011;8614;48.522;9.206;2022-11-20T13:41:23;10.90;;;10.20;;
16994;SDS011;8614;48.522;9.206;2022-11-20T13:43:54;11.00;;;10.20;;
16994;SDS011;8614;48.522;9.206;2022-11-20T13:46:34;11.17;;;10.23;;
16994;SDS011;8614;48.522;9.206;2022-11-20T13:49:09;10.77;;;10.07;;
16994;SDS011;8614;48.522;9.206;2022-11-20T13:51:43;10.83;;;10.13;;
16994;SDS011;8614;48.522;9.206;2022-11-20T13:54:33;10.70;;;9.90;;
16994;SDS011;8614;48.522;9.206;2022-11-20T13:57:26;10.30;;;9.70;;
16994;SDS011;8614;48.522;9.206;2022-11-20T14:00:09;10.37;;;9.57;;
16994;SDS011;8614;48.522;9.206;2022-11-20T14:02:41;10.07;;;9.47;;
16994;SDS011;8614;48.522;9.206;2022-11-20T14:05:14;10.30;;;9.60;;
16994;SDS011;8614;48.522;9.206;2022-11-20T14:07:46;10.60;;;9.90;;
16994;SDS011;8614;48.522;9.206;2022-11-20T14:10:21;10.60;;;9.90;;
16994;SDS011;8614;48.522;9.206;2022-11-20T14:12:49;10.43;;;9.83;;
16994;SDS011;8614;48.522;9.206;2022-11-20T14:15:27;10.27;;;9.67;;
16994;SDS011;8614;48.522;9.206;2022-11-20T14:17:57;10.10;;;9.50;;
16994;SDS011;8614;48.522;9.206;2022-11-20T14:20:25;9.90;;;9.30;;
16994;SDS011;8614;48.522;9.206;2022-11-20T14:22:54;9.80;;;9.20;;
16994;SDS011;8614;48.522;9.206;2022-11-20T14:25:22;9.97;;;9.37;;
16994;SDS011;8614;48.522;9.206;2022-11-20T14:27:52;10.20;;;9.50;;
16994;SDS011;8614;48.522;9.206;2022-11-20T14:30:21;9.90;;;9.40;;
16994;SDS011;8614;48.522;9.206;2022-11-20T14:32:51;9.83;;;9.23;;
16994;SDS011;8614;48.522;9.206;2022-11-20T14:35:23;10.20;;;9.60;;
16994;SDS011;8614;48.522;9.206;2022-11-20T14:37:51;10.20;;;9.60;;
16994;SDS011;8614;48.522;9.206;2022-11-20T14:40:23;9.30;;;8.80;;
16994;SDS011;8614;48.522;9.206;2022-11-20T14:42:52;9.80;;;9.30;;
16994;SDS011;8614;48.522;9.206;2022-11-20T14:45:20;9.93;;;9.37;;
16994;SDS011;8614;48.522;9.206;2022-11-20T14:47:48;10.23;;;9.67;;
16994;SDS011;8614;48.522;9.206;2022-11-20T14:50:19;10.57;;;9.97;;
16994;SDS011;8614;48.522;9.206;2022-11-20T14:52:50;9.90;;;9.30;;
16994;SDS011;8614;48.522;9.206;2022-11-20T14:55:25;10.30;;;9.70;;
16994;SDS011;8614;48.522;9.206;2022-11-20T14:57:54;10.40;;;9.80;;
16994;SDS011;8614;48.522;9.206;2022-11-20T15:00:22;11.47;;;10.87;;
16994;SDS011;8614;48.522;9.206;2022-11-20T15:02:51;11.37;;;10.53;;
16994;SDS011;8614;48.522;9.206;2022-11-20T15:05:19;10.87;;;10.20;;
16994;SDS011;8614;48.522;9.206;2022-11-20T15:07:49;11.20;;;10.50;;
16994;SDS011;8614;48.522;9.206;2022-11-20T15:10:21;11.13;;;10.43;;
16994;SDS011;8614;48.522;9.206;2022-11-20T15:12:49;10.70;;;10.03;;
16994;SDS011;8614;48.522;9.206;2022-11-20T15:15:19;10.60;;;9.97;;
16994;SDS011;8614;48.522;9.206;2022-11-20T15:17:49;10.33;;;9.73;;
16994;SDS011;8614;48.522;9.206;2022-11-20T15:20:16;10.83;;;10.10;;
16994;SDS011;8614;48.522;9.206;2022-11-20T15:22:43;10.40;;;9.80;;
16994;SDS011;8614;48.522;9.206;2022-11-20T15:25:16;10.40;;;9.80;;
16994;SDS011;8614;48.522;9.206;2022-11-20T15:27:44;11.00;;;10.27;;
16994;SDS011;8614;48.522;9.206;2022-11-20T15:30:12;10.80;;;10.10;;
16994;SDS011;8614;48.522;9.206;2022-11-20T15:32:40;9.50;;;8.90;;
16994;SDS011;8614;48.522;9.206;2022-11-20T15:35:07;9.53;;;8.93;;
16994;SDS011;8614;48.522;9.206;2022-11-20T15:37:34;9.63;;;9.13;;
16994;SDS011;8614;48.522;9.206;2022-11-20T15:40:01;9.60;;;9.00;;
16994;SDS011;8614;48.522;9.206;2022-11-20T15:42:30;9.60;;;9.00;;
16994;SDS011;8614;48.522;9.206;2022-11-20T15:44:57;9.60;;;9.03;;
16994;SDS011;8614;48.522;9.206;2022-11-20T15:47:25;10.10;;;9.50;;
16994;SDS011;8614;48.522;9.206;2022-11-20T15:49:55;10.07;;;9.47;;
16994;SDS011;8614;48.522;9.206;2022-11-20T15:52:22;9.97;;;9.47;;
16994;SDS011;8614;48.522;9.206;2022-11-20T15:54:49;10.73;;;10.03;;
16994;SDS011;8614;48.522;9.206;2022-11-20T15:57:16;11.03;;;10.23;;
16994;SDS011;8614;48.522;9.206;2022-11-20T15:59:44;10.90;;;10.20;;
16994;SDS011;8614;48.522;9.206;2022-11-20T16:02:11;11.47;;;10.77;;
16994;SDS011;8614;48.522;9.206;2022-11-20T16:04:39;11.17;;;10.47;;
16994;SDS011;8614;48.522;9.206;2022-11-20T16:07:06;13.23;;;12.23;;
16994;SDS011;8614;48.522;9.206;2022-11-20T16:09:32;13.20;;;12.20;;
16994;SDS011;8614;48.522;9.206;2022-11-20T16:11:59;13.30;;;12.20;;
16994;SDS011;8614;48.522;9.206;2022-11-20T16:14:26;12.80;;;11.90;;
16994;SDS011;8614;48.522;9.206;2022-11-20T16:17:12;13.40;;;12.40;;
16994;SDS011;8614;48.522;9.206;2022-11-20T16:19:39;13.53;;;12.63;;
16994;SDS011;8614;48.522;9.206;2022-11-20T16:22:06;13.63;;;12.57;;
16994;SDS011;8614;48.522;9.206;2022-11-20T16:24:36;13.33;;;12.43;;
16994;SDS011;8614;48.522;9.206;2022-11-20T16:27:06;12.87;;;11.97;;
16994;SDS011;8614;48.522;9.206;2022-11-20T16:29:33;13.00;;;12.10;;
16994;SDS011;8614;48.522;9.206;2022-11-20T16:32:00;12.83;;;11.93;;
16994;SDS011;8614;48.522;9.206;2022-11-20T16:34:28;12.40;;;11.60;;
16994;SDS011;8614;48.522;9.206;2022-11-20T16:36:55;12.50;;;11.70;;
16994;SDS011;8614;48.522;9.206;2022-11-20T16:39:22;12.13;;;11.33;;
16994;SDS011;8614;48.522;9.206;2022-11-20T16:41:51;12.10;;;11.30;;
16994;SDS011;8614;48.522;9.206;2022-11-20T16:44:18;12.40;;;11.60;;
16994;SDS011;8614;48.522;9.206;2022-11-20T16:46:45;11.97;;;11.27;;
16994;SDS011;8614;48.522;9.206;2022-11-20T16:49:12;11.93;;;11.10;;
16994;SDS011;8614;48.522;9.206;2022-11-20T16:51:44;12.10;;;11.20;;
16994;SDS011;8614;48.522;9.206;2022-11-20T16:54:11;12.93;;;12.03;;
16994;SDS011;8614;48.522;9.206;2022-11-20T16:56:38;12.17;;;11.37;;
16994;SDS011;8614;48.522;9.206;2022-11-20T16:59:05;12.63;;;11.83;;
16994;SDS011;8614;48.522;9.206;2022-11-20T17:01:32;12.03;;;11.13;;
16994;SDS011;8614;48.522;9.206;2022-11-20T17:04:03;12.57;;;11.77;;
16994;SDS011;8614;48.522;9.206;2022-11-20T17:06:34;11.50;;;10.80;;
16994;SDS011;8614;48.522;9.206;2022-11-20T17:09:03;12.10;;;11.40;;
16994;SDS011;8614;48.522;9.206;2022-11-20T17:11:31;12.87;;;11.97;;
16994;SDS011;8614;48.522;9.206;2022-11-20T17:13:58;12.13;;;11.20;;
16994;SDS011;8614;48.522;9.206;2022-11-20T17:16:26;11.97;;;11.27;;
16994;SDS011;8614;48.522;9.206;2022-11-20T17:18:53;12.23;;;11.33;;
16994;SDS011;8614;48.522;9.206;2022-11-20T17:21:20;11.10;;;10.40;;
16994;SDS011;8614;48.522;9.206;2022-11-20T17:23:48;11.87;;;11.17;;
16994;SDS011;8614;48.522;9.206;2022-11-20T17:26:16;11.87;;;10.97;;
16994;SDS011;8614;48.522;9.206;2022-11-20T17:28:46;12.20;;;11.40;;
16994;SDS011;8614;48.522;9.206;2022-11-20T17:31:18;11.90;;;11.10;;
16994;SDS011;8614;48.522;9.206;2022-11-20T17:33:45;11.73;;;10.93;;
16994;SDS011;8614;48.522;9.206;2022-11-20T17:36:13;11.40;;;10.70;;
16994;SDS011;8614;48.522;9.206;2022-11-20T17:38:41;12.10;;;11.30;;
16994;SDS011;8614;48.522;9.206;2022-11-20T17:41:09;12.03;;;11.23;;
16994;SDS011;8614;48.522;9.206;2022-11-20T17:43:38;12.87;;;11.97;;
16994;SDS011;8614;48.522;9.206;2022-11-20T17:46:07;12.87;;;12.00;;
16994;SDS011;8614;48.522;9.206;2022-11-20T17:48:35;12.60;;;11.70;;
16994;SDS011;8614;48.522;9.206;2022-11-20T17:51:06;13.13;;;12.23;;
16994;SDS011;8614;48.522;9.206;2022-11-20T17:53:33;13.13;;;12.27;;
16994;SDS011;8614;48.522;9.206;2022-11-20T17:56:01;12.10;;;11.30;;
16994;SDS011;8614;48.522;9.206;2022-11-20T17:58:47;12.43;;;11.63;;
16994;SDS011;8614;48.522;9.206;2022-11-20T18:01:14;13.67;;;12.70;;